Pagrindinis puslapis
METAR-TAF:

METAR-TAF

Oro uostai :

Tunisas, Tunisas

platuma: 36-50N, ilguma: 010-14E, Aukštis: 3 m

Dabartinis oras

Ataskaita buvo paskelbta 15 minutes, ne 03:30 UTC
Vėjas 6 kt iš Pietų
Temperatūra 9°C
Drėgmė 81%
Slėgis 1028 hPa
Matomumas 10 km arba daugiau
Mažai debesys ne aukštis 2600 ft
Išsisklaidę debesys ne aukštis 4000 ft

METAR: DTTA 180330Z 17006KT 9999 FEW026 SCT040 09/06 Q1028

Laikas: 04:45 (03:45 UTC)

Prognozė

Ataskaita buvo paskelbta 4 valandos ir 45 minutes, ne 23:00 UTC
Prognozė galioja nuo 18 metu 00 UTC su 18 metu 24 UTC
Vėjas 9 kt iš Vakarų
Matomumas 10 km arba daugiau
Mažai debesys ne aukštis 2600 ft
Išsisklaidę debesys ne aukštis 4000 ft
Tapsmas
nuo 18 metu 10 UTC su 18 metu 12 UTC
Vėjas 15 kt iš Vakarų/Šiaurės Vakarų su gūsio iki 25 kt
Tapsmas
nuo 18 metu 16 UTC su 18 metu 18 UTC
Vėjas 5 kt iš Vakarų/Pietvakarių

TAF: DTTA 172300Z 1800/1824 27009KT 9999 FEW026 SCT040 BECMG 1810/1812 30015G25KT BECMG 1816/1818 25005KT

Orai ataskaitas ir orų prognozės (METAR, TAF).

turimą stotys yra geltonos ir raudonos taškus žemėlapyje.

Perkelti pele per norėdami pamatyti stoties vardą.

Tada spustelėkite, norėdami matyti oro stebėjimo ir prognozės.

Norėdami pakeisti žemėlapį: spustelėkite ant žalios mygtukų su juodo kryžiaus žemyn,; žalią mygtuką su brūkšneliu, jei norite nutolinti; arba žalių rodyklių gretimoms žemėlapius.


METAR-TAF: